createdAt,value
2023-03-08T00:02:12.142Z,15.75
2023-03-08T00:04:40.127Z,10.17
2023-03-08T00:07:07.578Z,12.50
2023-03-08T00:09:35.868Z,15.53
2023-03-08T00:12:03.442Z,10.53
2023-03-08T00:14:30.978Z,10.10
2023-03-08T00:16:58.514Z,11.82
2023-03-08T00:19:26.066Z,11.03
2023-03-08T00:21:54.349Z,10.37
2023-03-08T00:24:21.885Z,9.67
2023-03-08T00:26:50.260Z,15.77
2023-03-08T00:29:17.858Z,12.60
2023-03-08T00:31:45.423Z,11.70
2023-03-08T00:34:12.883Z,12.47
2023-03-08T00:36:40.422Z,9.63
2023-03-08T00:39:08.725Z,11.37
2023-03-08T00:41:36.306Z,11.67
2023-03-08T00:44:03.872Z,10.23
2023-03-08T00:46:31.419Z,11.47
2023-03-08T00:48:58.941Z,11.60
2023-03-08T00:51:26.466Z,9.77
2023-03-08T00:53:54.000Z,11.30
2023-03-08T00:56:21.566Z,13.45
2023-03-08T00:58:49.127Z,12.83
2023-03-08T01:01:16.728Z,13.03
2023-03-08T01:03:44.979Z,13.13
2023-03-08T01:06:12.510Z,12.47
2023-03-08T01:08:42.634Z,14.25
2023-03-08T01:11:15.787Z,9.77
2023-03-08T01:13:43.317Z,12.90
2023-03-08T01:16:22.478Z,11.73
2023-03-08T01:18:49.995Z,14.93
2023-03-08T01:21:17.534Z,11.90
2023-03-08T01:23:45.091Z,12.73
2023-03-08T01:26:12.640Z,12.03
2023-03-08T01:28:40.153Z,12.83
2023-03-08T01:31:14.203Z,13.33
2023-03-08T01:33:41.731Z,14.53
2023-03-08T01:36:09.384Z,12.70
2023-03-08T01:38:36.853Z,12.90
2023-03-08T01:41:05.150Z,12.67
2023-03-08T01:43:32.664Z,15.13
2023-03-08T01:46:15.246Z,14.47
2023-03-08T01:48:48.538Z,12.37
2023-03-08T01:51:16.119Z,17.63
2023-03-08T01:53:43.674Z,16.00
2023-03-08T01:56:11.211Z,12.03
2023-03-08T01:58:38.756Z,14.95
2023-03-08T02:01:06.373Z,15.63
2023-03-08T02:03:33.837Z,12.70
2023-03-08T02:06:02.144Z,13.57
2023-03-08T02:08:29.701Z,16.58
2023-03-08T02:10:57.238Z,12.73
2023-03-08T02:13:24.767Z,13.27
2023-03-08T02:15:52.321Z,15.13
2023-03-08T02:18:19.852Z,13.73
2023-03-08T02:20:47.392Z,15.45
2023-03-08T02:23:14.995Z,14.93
2023-03-08T02:25:42.509Z,15.23
2023-03-08T02:28:10.045Z,17.47
2023-03-08T02:30:38.382Z,14.03
2023-03-08T02:33:05.926Z,14.97
2023-03-08T02:35:33.480Z,17.40
2023-03-08T02:38:01.777Z,18.20
2023-03-08T02:40:29.335Z,15.37
2023-03-08T02:42:56.886Z,16.73
2023-03-08T02:45:24.431Z,14.90
2023-03-08T02:47:51.970Z,14.40
2023-03-08T02:50:19.484Z,14.73
2023-03-08T02:52:47.056Z,16.50
2023-03-08T02:55:15.361Z,17.27
2023-03-08T02:57:42.890Z,19.27
2023-03-08T03:00:10.625Z,14.60
2023-03-08T03:02:38.166Z,14.00
2023-03-08T03:05:05.782Z,13.13
2023-03-08T03:07:39.806Z,16.63
2023-03-08T03:10:07.499Z,16.07
2023-03-08T03:12:35.011Z,17.50
2023-03-08T03:15:03.332Z,14.83
2023-03-08T03:17:30.856Z,19.13
2023-03-08T03:19:58.439Z,17.70
2023-03-08T03:22:25.974Z,30.63
2023-03-08T03:24:54.281Z,15.20
2023-03-08T03:27:21.803Z,14.10
2023-03-08T03:29:50.166Z,16.10
2023-03-08T03:32:17.754Z,17.00
2023-03-08T03:34:45.202Z,17.93
2023-03-08T03:37:12.775Z,16.97
2023-03-08T03:39:40.319Z,17.43
2023-03-08T03:42:07.880Z,17.97
2023-03-08T03:44:36.197Z,16.60
2023-03-08T03:47:03.734Z,18.57
2023-03-08T03:49:31.251Z,15.17
2023-03-08T03:51:58.816Z,17.93
2023-03-08T03:54:27.122Z,18.73
2023-03-08T03:56:54.666Z,19.17
2023-03-08T03:59:23.953Z,19.87
2023-03-08T04:01:50.494Z,16.93
2023-03-08T04:04:18.796Z,16.03
2023-03-08T04:06:46.408Z,19.47
2023-03-08T04:09:13.950Z,23.00
2023-03-08T04:11:41.474Z,17.03
2023-03-08T04:14:09.026Z,18.13
2023-03-08T04:16:36.551Z,16.97
2023-03-08T04:19:06.817Z,18.93
2023-03-08T04:21:34.405Z,17.40
2023-03-08T04:24:01.935Z,20.33
2023-03-08T04:26:29.454Z,18.17
2023-03-08T04:28:57.021Z,19.63
2023-03-08T04:31:24.601Z,16.63
2023-03-08T04:33:52.104Z,18.97
2023-03-08T04:36:19.661Z,17.13
2023-03-08T04:38:47.198Z,18.77
2023-03-08T04:41:14.723Z,22.13
2023-03-08T04:43:49.014Z,17.87
2023-03-08T04:46:16.556Z,19.57
2023-03-08T04:48:44.060Z,23.25
2023-03-08T04:51:12.374Z,18.83
2023-03-08T04:53:39.946Z,20.10
2023-03-08T04:56:07.546Z,20.27
2023-03-08T04:58:35.878Z,19.00
2023-03-08T05:01:11.837Z,17.73
2023-03-08T05:03:39.371Z,20.43
2023-03-08T05:06:06.936Z,18.60
2023-03-08T05:08:34.497Z,20.90
2023-03-08T05:11:02.009Z,19.30
2023-03-08T05:13:29.585Z,20.40
2023-03-08T05:15:57.906Z,20.47
2023-03-08T05:18:25.435Z,17.97
2023-03-08T05:20:59.066Z,20.57
2023-03-08T05:23:28.400Z,22.60
2023-03-08T05:25:56.853Z,22.10
2023-03-08T05:28:24.427Z,20.17
2023-03-08T05:30:51.977Z,20.67
2023-03-08T05:33:19.557Z,20.87
2023-03-08T05:35:47.115Z,28.17
2023-03-08T05:38:14.613Z,25.17
2023-03-08T05:40:42.137Z,25.43
2023-03-08T05:43:09.730Z,24.63
2023-03-08T05:45:37.376Z,24.23
2023-03-08T05:48:05.597Z,21.03
2023-03-08T05:50:33.152Z,20.00
2023-03-08T05:53:00.671Z,22.93
2023-03-08T05:55:28.977Z,25.33
2023-03-08T05:57:56.571Z,21.80
2023-03-08T06:00:24.312Z,21.53
2023-03-08T06:02:51.883Z,28.80
2023-03-08T06:05:19.457Z,26.98
2023-03-08T06:07:46.982Z,22.77
2023-03-08T06:10:14.579Z,21.50
2023-03-08T06:12:42.126Z,24.93
2023-03-08T06:15:09.679Z,22.10
2023-03-08T06:17:37.220Z,25.80
2023-03-08T06:20:04.811Z,23.23
2023-03-08T06:22:32.339Z,22.23
2023-03-08T06:24:59.871Z,27.08
2023-03-08T06:27:27.474Z,27.40
2023-03-08T06:29:54.983Z,22.73
2023-03-08T06:32:22.540Z,23.50
2023-03-08T06:34:50.097Z,21.43
2023-03-08T06:37:18.415Z,25.27
2023-03-08T06:39:45.935Z,22.20
2023-03-08T06:42:13.509Z,26.47
2023-03-08T06:44:41.054Z,24.17
2023-03-08T06:47:09.349Z,29.83
2023-03-08T06:49:36.912Z,26.33
2023-03-08T06:52:04.458Z,24.90
2023-03-08T06:54:31.973Z,24.83
2023-03-08T06:56:59.537Z,22.67
2023-03-08T06:59:27.066Z,22.80
2023-03-08T07:01:54.606Z,20.83
2023-03-08T07:04:22.187Z,24.57
2023-03-08T07:06:49.784Z,20.23
2023-03-08T07:09:17.260Z,22.45
2023-03-08T07:11:44.821Z,19.33
2023-03-08T07:14:12.364Z,20.50
2023-03-08T07:16:40.696Z,17.27
2023-03-08T07:19:08.252Z,18.07
2023-03-08T07:21:35.784Z,15.83
2023-03-08T07:24:03.306Z,18.50
2023-03-08T07:26:31.668Z,15.90
2023-03-08T07:28:59.203Z,16.07
2023-03-08T07:31:26.754Z,16.60
2023-03-08T07:33:54.312Z,15.20
2023-03-08T07:36:21.888Z,16.63
2023-03-08T07:38:49.401Z,15.13
2023-03-08T07:41:17.747Z,15.27
2023-03-08T07:43:45.282Z,16.43
2023-03-08T07:46:12.842Z,25.85
2023-03-08T07:48:40.693Z,19.70
2023-03-08T07:51:08.204Z,18.17
2023-03-08T07:53:39.351Z,14.27
2023-03-08T07:56:07.740Z,16.60
2023-03-08T07:58:36.036Z,13.43
2023-03-08T08:01:03.552Z,13.57
2023-03-08T08:03:31.240Z,14.93
2023-03-08T08:05:59.413Z,11.90
2023-03-08T08:08:27.722Z,12.13
2023-03-08T08:10:55.288Z,13.57
2023-03-08T08:13:22.819Z,12.07
2023-03-08T08:15:59.211Z,11.50
2023-03-08T08:18:27.555Z,10.97
2023-03-08T08:21:01.288Z,9.93
2023-03-08T08:23:28.813Z,11.17
2023-03-08T08:25:57.167Z,10.47
2023-03-08T08:28:25.490Z,9.27
2023-03-08T08:30:59.099Z,9.90
2023-03-08T08:33:26.667Z,8.07
2023-03-08T08:35:54.227Z,7.93
2023-03-08T08:38:21.724Z,8.70
2023-03-08T08:40:50.069Z,9.77
2023-03-08T08:43:17.602Z,7.47
2023-03-08T08:45:45.271Z,8.93
2023-03-08T08:48:13.478Z,7.80
2023-03-08T08:50:41.001Z,6.97
2023-03-08T08:53:08.613Z,7.20
2023-03-08T08:55:36.112Z,6.73
2023-03-08T08:58:03.657Z,7.33
2023-03-08T09:00:31.185Z,7.47
2023-03-08T09:02:59.094Z,5.70
2023-03-08T09:05:26.643Z,6.13
2023-03-08T09:07:56.837Z,6.83
2023-03-08T09:10:25.185Z,6.87
2023-03-08T09:12:52.752Z,6.67
2023-03-08T09:15:20.227Z,7.17
2023-03-08T09:17:47.812Z,7.90
2023-03-08T09:20:15.339Z,8.20
2023-03-08T09:22:42.875Z,6.03
2023-03-08T09:25:10.453Z,8.32
2023-03-08T09:27:38.015Z,6.70
2023-03-08T09:30:05.683Z,7.22
2023-03-08T09:32:33.292Z,6.97
2023-03-08T09:35:01.560Z,8.48
2023-03-08T09:37:29.108Z,6.80
2023-03-08T09:39:57.457Z,7.87
2023-03-08T09:42:24.969Z,8.30
2023-03-08T09:45:07.857Z,7.97
2023-03-08T09:47:36.184Z,9.63
2023-03-08T09:50:13.598Z,7.27
2023-03-08T09:52:43.800Z,6.07
2023-03-08T09:55:14.454Z,8.35
2023-03-08T09:57:42.162Z,10.27
2023-03-08T10:00:09.730Z,6.73
2023-03-08T10:02:43.255Z,8.63
2023-03-08T10:05:25.811Z,8.10
2023-03-08T10:08:08.839Z,7.20
2023-03-08T10:10:51.426Z,7.80
2023-03-08T10:13:34.662Z,7.33
2023-03-08T10:16:30.062Z,8.07
2023-03-08T10:19:00.208Z,10.67
2023-03-08T10:21:27.758Z,8.67
2023-03-08T10:24:05.106Z,7.83
2023-03-08T10:26:32.632Z,9.53
2023-03-08T10:29:00.186Z,7.00
2023-03-08T10:31:27.769Z,6.27
2023-03-08T10:33:57.742Z,8.50
2023-03-08T10:36:26.024Z,9.13
2023-03-08T10:38:56.364Z,7.67
2023-03-08T10:41:23.890Z,7.67
2023-03-08T10:43:52.196Z,7.17
2023-03-08T10:46:25.488Z,7.13
2023-03-08T10:48:52.945Z,6.57
2023-03-08T10:51:26.700Z,8.30
2023-03-08T10:54:00.257Z,6.43
2023-03-08T10:56:27.824Z,6.30
2023-03-08T10:58:56.159Z,8.43
2023-03-08T11:01:29.403Z,10.77
2023-03-08T11:04:05.691Z,12.37
2023-03-08T11:06:33.227Z,9.33
2023-03-08T11:09:00.791Z,7.53
2023-03-08T11:11:29.075Z,8.23
2023-03-08T11:13:56.598Z,10.30
2023-03-08T11:16:45.077Z,10.75
2023-03-08T11:19:15.569Z,9.10
2023-03-08T11:21:49.020Z,10.40
2023-03-08T11:24:22.551Z,10.40
2023-03-08T11:26:55.553Z,9.87
2023-03-08T11:29:23.832Z,10.03
2023-03-08T11:32:03.130Z,9.20
2023-03-08T11:34:42.497Z,9.47
2023-03-08T11:37:15.766Z,11.17
2023-03-08T11:39:47.033Z,10.43
2023-03-08T11:42:36.192Z,11.27
2023-03-08T11:45:19.870Z,10.43
2023-03-08T11:47:47.434Z,11.97
2023-03-08T11:50:23.558Z,11.77
2023-03-08T11:53:18.467Z,11.30
2023-03-08T11:55:55.236Z,12.53
2023-03-08T11:58:49.292Z,12.83
2023-03-08T12:01:15.447Z,11.43
2023-03-08T12:03:45.845Z,11.90
2023-03-08T12:06:27.925Z,12.43
2023-03-08T12:08:49.345Z,15.63
2023-03-08T12:11:19.758Z,15.10
2023-03-08T12:13:47.358Z,12.53
2023-03-08T12:16:23.807Z,14.90
2023-03-08T12:18:56.793Z,11.33
2023-03-08T12:21:29.967Z,12.50
2023-03-08T12:24:02.748Z,12.13
2023-03-08T12:26:30.484Z,11.87
2023-03-08T12:29:01.396Z,10.20
2023-03-08T12:31:30.071Z,9.57
2023-03-08T12:33:57.275Z,11.97
2023-03-08T12:36:37.013Z,9.93
2023-03-08T12:39:07.174Z,10.40
2023-03-08T12:41:34.725Z,10.30
2023-03-08T12:44:02.257Z,11.87
2023-03-08T12:46:29.789Z,11.53
2023-03-08T12:48:57.417Z,8.93
2023-03-08T12:51:24.927Z,10.67
2023-03-08T12:53:52.433Z,10.37
2023-03-08T12:56:23.216Z,10.17
2023-03-08T12:58:54.145Z,7.17
2023-03-08T13:01:30.602Z,15.43
2023-03-08T13:03:58.060Z,12.83
2023-03-08T13:06:25.655Z,7.57
2023-03-08T13:08:59.049Z,10.27
2023-03-08T13:11:26.596Z,7.67
2023-03-08T13:13:57.013Z,8.20
2023-03-08T13:16:36.539Z,3.67
2023-03-08T13:19:16.080Z,2.50
2023-03-08T13:22:04.671Z,3.07
2023-03-08T13:24:44.019Z,2.93
2023-03-08T13:27:29.686Z,2.67
2023-03-08T13:29:57.271Z,2.27
2023-03-08T13:32:24.818Z,3.57
2023-03-08T13:34:58.365Z,1.10
2023-03-08T13:37:25.932Z,1.27
2023-03-08T13:39:53.465Z,4.33
2023-03-08T13:42:21.768Z,1.60
2023-03-08T13:44:49.342Z,2.23
2023-03-08T13:47:25.544Z,1.57
2023-03-08T13:49:53.215Z,0.53
2023-03-08T13:52:23.662Z,0.70
2023-03-08T13:54:51.945Z,0.77
2023-03-08T13:57:19.645Z,1.67
2023-03-08T13:59:49.987Z,0.63
2023-03-08T14:02:20.453Z,1.17
2023-03-08T14:04:48.022Z,0.40
2023-03-08T14:07:21.833Z,0.70
2023-03-08T14:09:49.368Z,1.13
2023-03-08T14:12:17.743Z,1.83
2023-03-08T14:14:45.316Z,0.70
2023-03-08T14:17:15.806Z,1.80
2023-03-08T14:19:43.341Z,3.50
2023-03-08T14:22:10.914Z,0.80
2023-03-08T14:24:38.409Z,3.85
2023-03-08T14:27:15.104Z,2.80
2023-03-08T14:29:43.487Z,2.00
2023-03-08T14:32:11.159Z,4.37
2023-03-08T14:34:41.155Z,1.83
2023-03-08T14:37:23.352Z,3.07
2023-03-08T14:39:50.933Z,3.37
2023-03-08T14:42:27.535Z,2.83
2023-03-08T14:45:03.648Z,1.87
2023-03-08T14:47:31.190Z,2.90
2023-03-08T14:50:07.722Z,5.60
2023-03-08T14:52:35.994Z,3.73
2023-03-08T14:55:03.564Z,3.37
2023-03-08T14:57:31.082Z,3.63
2023-03-08T14:59:58.646Z,6.73
2023-03-08T15:02:26.192Z,4.97
2023-03-08T15:04:53.728Z,5.10
2023-03-08T15:07:22.053Z,5.60
2023-03-08T15:09:49.597Z,4.77
2023-03-08T15:12:17.126Z,3.67
2023-03-08T15:14:44.699Z,3.90
2023-03-08T15:17:12.676Z,3.10
2023-03-08T15:19:40.230Z,2.47
2023-03-08T15:22:07.794Z,3.97
2023-03-08T15:24:35.330Z,3.37
2023-03-08T15:27:02.862Z,2.57
2023-03-08T15:29:33.922Z,4.73
2023-03-08T15:32:02.207Z,4.37
2023-03-08T15:34:29.731Z,3.83
2023-03-08T15:36:57.327Z,4.83
2023-03-08T15:39:24.861Z,3.23
2023-03-08T15:41:52.375Z,3.13
2023-03-08T15:44:19.966Z,3.73
2023-03-08T15:46:47.524Z,2.37
2023-03-08T15:49:15.005Z,5.22
2023-03-08T15:51:42.605Z,5.10
2023-03-08T15:54:10.177Z,4.30
2023-03-08T15:56:37.765Z,2.20
2023-03-08T15:59:05.311Z,3.83
2023-03-08T16:01:32.907Z,2.53
2023-03-08T16:04:00.385Z,5.70
2023-03-08T16:06:27.989Z,5.07
2023-03-08T16:08:55.528Z,5.07
2023-03-08T16:11:23.077Z,2.20
2023-03-08T16:13:50.660Z,4.27
2023-03-08T16:16:18.291Z,3.00
2023-03-08T16:18:45.755Z,7.30
2023-03-08T16:21:13.327Z,2.20
2023-03-08T16:23:40.842Z,2.03
2023-03-08T16:26:15.853Z,4.57
2023-03-08T16:28:36.739Z,5.20
2023-03-08T16:31:04.270Z,3.20
2023-03-08T16:33:31.819Z,2.37
2023-03-08T16:35:59.450Z,1.63
2023-03-08T16:38:26.954Z,1.53
2023-03-08T16:41:09.845Z,2.17
2023-03-08T16:43:22.824Z,1.93
2023-03-08T16:45:53.087Z,4.83
2023-03-08T16:48:20.604Z,5.72
2023-03-08T16:50:50.964Z,2.90
2023-03-08T16:53:18.508Z,5.13
2023-03-08T16:55:46.810Z,5.70
2023-03-08T16:58:14.436Z,3.03
2023-03-08T17:00:41.964Z,4.73
2023-03-08T17:03:09.469Z,4.27
2023-03-08T17:05:40.491Z,6.77
2023-03-08T17:08:08.844Z,7.10
2023-03-08T17:10:39.091Z,8.43
2023-03-08T17:13:06.729Z,4.33
2023-03-08T17:15:42.670Z,7.73
2023-03-08T17:18:10.178Z,5.33
2023-03-08T17:20:41.183Z,4.90
2023-03-08T17:23:08.704Z,4.57
2023-03-08T17:25:36.237Z,5.10
2023-03-08T17:28:04.598Z,4.13
2023-03-08T17:30:32.112Z,4.50
2023-03-08T17:32:59.636Z,5.07
2023-03-08T17:35:27.320Z,6.90
2023-03-08T17:37:54.776Z,9.27
2023-03-08T17:40:22.331Z,10.90
2023-03-08T17:42:49.929Z,3.93
2023-03-08T17:45:17.467Z,6.53
2023-03-08T17:47:45.037Z,3.97
2023-03-08T17:50:15.661Z,4.90
2023-03-08T17:52:43.551Z,5.00
2023-03-08T17:55:11.363Z,2.40
2023-03-08T17:57:38.868Z,2.80
2023-03-08T18:00:06.864Z,5.17
2023-03-08T18:02:35.775Z,4.00
2023-03-08T18:05:08.580Z,6.20
2023-03-08T18:07:34.097Z,4.23
2023-03-08T18:10:04.328Z,3.03
2023-03-08T18:12:31.926Z,3.27
2023-03-08T18:14:59.457Z,4.00
2023-03-08T18:17:26.992Z,6.83
2023-03-08T18:19:54.564Z,4.07
2023-03-08T18:22:22.095Z,5.13
2023-03-08T18:24:49.613Z,5.70
2023-03-08T18:27:17.188Z,6.20
2023-03-08T18:29:45.499Z,11.00
2023-03-08T18:32:13.046Z,10.73
2023-03-08T18:34:41.355Z,12.90
2023-03-08T18:37:08.877Z,5.60
2023-03-08T18:39:36.403Z,5.70
2023-03-08T18:42:04.312Z,4.10
2023-03-08T18:44:31.861Z,3.23
2023-03-08T18:47:00.346Z,4.03
2023-03-08T18:49:27.728Z,7.60
2023-03-08T18:51:55.268Z,6.77
2023-03-08T18:54:22.796Z,9.53
2023-03-08T18:56:51.132Z,8.43
2023-03-08T18:59:18.680Z,7.90
2023-03-08T19:01:46.245Z,11.02
2023-03-08T19:04:13.802Z,8.27
2023-03-08T19:06:41.333Z,9.23
2023-03-08T19:09:09.178Z,7.43
2023-03-08T19:11:37.507Z,7.40
2023-03-08T19:14:05.041Z,8.93
2023-03-08T19:16:32.591Z,9.43
2023-03-08T19:19:00.908Z,10.73
2023-03-08T19:21:28.447Z,8.30
2023-03-08T19:23:55.979Z,12.10
2023-03-08T19:26:38.975Z,11.50
2023-03-08T19:29:12.188Z,9.03
2023-03-08T19:31:42.365Z,6.63
2023-03-08T19:34:10.652Z,7.57
2023-03-08T19:36:38.254Z,8.83
2023-03-08T19:39:06.540Z,10.32
2023-03-08T19:41:34.134Z,10.50
2023-03-08T19:44:01.650Z,12.67
2023-03-08T19:46:29.179Z,9.67
2023-03-08T19:48:56.803Z,9.83
2023-03-08T19:51:24.348Z,14.48
2023-03-08T19:53:51.873Z,11.53
2023-03-08T19:56:20.205Z,10.83
2023-03-08T19:58:47.728Z,9.17
2023-03-08T20:01:15.291Z,11.73
2023-03-08T20:03:43.161Z,10.97
2023-03-08T20:06:10.698Z,10.83
2023-03-08T20:08:39.003Z,8.77
2023-03-08T20:11:06.653Z,7.97
2023-03-08T20:13:34.192Z,10.10
2023-03-08T20:16:02.486Z,10.17
2023-03-08T20:18:30.098Z,11.00
2023-03-08T20:20:57.587Z,9.63
2023-03-08T20:23:25.901Z,11.20
2023-03-08T20:25:53.482Z,12.43
2023-03-08T20:28:21.026Z,13.03
2023-03-08T20:30:48.623Z,14.35
2023-03-08T20:33:16.139Z,13.27
2023-03-08T20:35:43.721Z,11.53
2023-03-08T20:38:11.948Z,11.97
2023-03-08T20:40:39.870Z,10.70
2023-03-08T20:43:07.097Z,13.67
2023-03-08T20:45:34.634Z,10.93
2023-03-08T20:48:02.226Z,15.90
2023-03-08T20:50:29.752Z,13.30
2023-03-08T20:52:57.290Z,8.83
2023-03-08T20:55:25.607Z,8.93
2023-03-08T20:57:53.202Z,9.55
2023-03-08T21:00:20.762Z,7.33
2023-03-08T21:02:48.381Z,8.83
2023-03-08T21:05:16.631Z,6.57
2023-03-08T21:07:44.911Z,6.03
2023-03-08T21:10:12.789Z,8.00
2023-03-08T21:12:40.326Z,10.43
2023-03-08T21:15:08.814Z,6.83
2023-03-08T21:17:36.688Z,9.10
2023-03-08T21:20:04.202Z,6.57
2023-03-08T21:22:31.739Z,5.83
2023-03-08T21:24:59.342Z,6.82
2023-03-08T21:27:26.854Z,4.53
2023-03-08T21:29:57.106Z,5.80
2023-03-08T21:32:27.515Z,8.00
2023-03-08T21:34:52.196Z,5.27
2023-03-08T21:37:19.752Z,15.73
2023-03-08T21:39:47.385Z,11.07
2023-03-08T21:42:14.908Z,12.00
2023-03-08T21:44:43.219Z,8.43
2023-03-08T21:47:10.796Z,9.20
2023-03-08T21:49:38.328Z,6.10
2023-03-08T21:52:05.854Z,6.50
2023-03-08T21:54:34.183Z,5.20
2023-03-08T21:57:01.727Z,5.23
2023-03-08T21:59:29.300Z,6.90
2023-03-08T22:01:57.617Z,4.43
2023-03-08T22:04:25.169Z,3.80
2023-03-08T22:06:52.687Z,7.37
2023-03-08T22:09:20.235Z,5.90
2023-03-08T22:11:47.776Z,3.70
2023-03-08T22:14:16.078Z,4.80
2023-03-08T22:16:43.655Z,4.43
2023-03-08T22:19:11.193Z,4.57
2023-03-08T22:21:38.747Z,4.40
2023-03-08T22:24:06.314Z,7.70
2023-03-08T22:26:33.837Z,5.27
2023-03-08T22:29:01.370Z,5.43
2023-03-08T22:31:28.999Z,5.17
2023-03-08T22:33:57.266Z,7.12
2023-03-08T22:36:24.831Z,5.13
2023-03-08T22:38:52.397Z,5.20
2023-03-08T22:41:19.952Z,5.93
2023-03-08T22:43:47.472Z,4.97
2023-03-08T22:46:15.827Z,5.83
2023-03-08T22:48:43.359Z,3.93
2023-03-08T22:51:11.797Z,6.80
2023-03-08T22:53:39.256Z,3.70
2023-03-08T22:56:07.671Z,3.60
2023-03-08T22:58:35.231Z,6.47
2023-03-08T23:01:02.828Z,4.17
2023-03-08T23:03:30.389Z,5.23
2023-03-08T23:05:57.898Z,5.53
2023-03-08T23:08:25.471Z,6.67
2023-03-08T23:10:52.993Z,4.53
2023-03-08T23:13:33.070Z,6.50
2023-03-08T23:15:48.105Z,9.47
2023-03-08T23:18:16.397Z,5.50
2023-03-08T23:20:44.012Z,5.73
2023-03-08T23:23:12.292Z,8.50
2023-03-08T23:25:39.839Z,5.20
2023-03-08T23:28:07.381Z,6.73
2023-03-08T23:30:34.975Z,2.70
2023-03-08T23:33:02.500Z,3.47
2023-03-08T23:35:30.033Z,5.20
2023-03-08T23:37:57.614Z,4.83
2023-03-08T23:40:25.136Z,3.87
2023-03-08T23:42:53.462Z,3.07
2023-03-08T23:45:21.052Z,5.60
2023-03-08T23:47:48.555Z,3.10
2023-03-08T23:50:16.094Z,3.50
2023-03-08T23:52:43.665Z,3.13
2023-03-08T23:55:11.481Z,2.27
2023-03-08T23:57:39.011Z,3.90
